sensor_id;sensor_type;location;lat;lon;timestamp;P1;durP1;ratioP1;P2;durP2;ratioP2
33864;SDS011;20159;51.072;13.526;2023-05-16T00:00:02;10.25;;;9.25;;
33864;SDS011;20159;51.072;13.526;2023-05-16T00:02:31;8.70;;;7.82;;
33864;SDS011;20159;51.072;13.526;2023-05-16T00:04:56;9.60;;;8.73;;
33864;SDS011;20159;51.072;13.526;2023-05-16T00:07:22;9.70;;;8.80;;
33864;SDS011;20159;51.072;13.526;2023-05-16T00:09:48;10.82;;;9.77;;
33864;SDS011;20159;51.072;13.526;2023-05-16T00:12:16;10.35;;;9.35;;
33864;SDS011;20159;51.072;13.526;2023-05-16T00:14:43;10.63;;;9.63;;
33864;SDS011;20159;51.072;13.526;2023-05-16T00:17:09;10.75;;;9.65;;
33864;SDS011;20159;51.072;13.526;2023-05-16T00:19:36;15.07;;;9.50;;
33864;SDS011;20159;51.072;13.526;2023-05-16T00:22:05;11.80;;;10.30;;
33864;SDS011;20159;51.072;13.526;2023-05-16T00:24:31;11.43;;;10.43;;
33864;SDS011;20159;51.072;13.526;2023-05-16T00:26:58;11.20;;;10.05;;
33864;SDS011;20159;51.072;13.526;2023-05-16T00:29:23;10.63;;;9.63;;
33864;SDS011;20159;51.072;13.526;2023-05-16T00:31:49;10.73;;;9.73;;
33864;SDS011;20159;51.072;13.526;2023-05-16T00:34:14;11.13;;;10.02;;
33864;SDS011;20159;51.072;13.526;2023-05-16T00:36:40;11.43;;;10.32;;
33864;SDS011;20159;51.072;13.526;2023-05-16T00:39:05;11.23;;;10.10;;
33864;SDS011;20159;51.072;13.526;2023-05-16T00:41:32;11.05;;;9.95;;
33864;SDS011;20159;51.072;13.526;2023-05-16T00:43:58;11.73;;;10.52;;
33864;SDS011;20159;51.072;13.526;2023-05-16T00:46:24;11.25;;;10.15;;
33864;SDS011;20159;51.072;13.526;2023-05-16T00:48:49;12.15;;;10.88;;
33864;SDS011;20159;51.072;13.526;2023-05-16T00:51:16;11.40;;;10.15;;
33864;SDS011;20159;51.072;13.526;2023-05-16T00:53:42;11.48;;;10.48;;
33864;SDS011;20159;51.072;13.526;2023-05-16T00:56:10;13.75;;;10.05;;
33864;SDS011;20159;51.072;13.526;2023-05-16T00:58:36;11.48;;;10.43;;
33864;SDS011;20159;51.072;13.526;2023-05-16T01:01:01;12.35;;;11.25;;
33864;SDS011;20159;51.072;13.526;2023-05-16T01:03:28;11.50;;;10.40;;
33864;SDS011;20159;51.072;13.526;2023-05-16T01:05:57;12.30;;;11.10;;
33864;SDS011;20159;51.072;13.526;2023-05-16T01:08:23;11.75;;;10.60;;
33864;SDS011;20159;51.072;13.526;2023-05-16T01:14:03;11.70;;;10.60;;
33864;SDS011;20159;51.072;13.526;2023-05-16T01:19:31;11.85;;;10.75;;
33864;SDS011;20159;51.072;13.526;2023-05-16T01:25:18;11.50;;;10.40;;
33864;SDS011;20159;51.072;13.526;2023-05-16T01:27:54;11.50;;;10.40;;
33864;SDS011;20159;51.072;13.526;2023-05-16T01:30:22;12.40;;;11.20;;
33864;SDS011;20159;51.072;13.526;2023-05-16T01:32:49;12.38;;;11.27;;
33864;SDS011;20159;51.072;13.526;2023-05-16T01:35:15;12.60;;;11.30;;
33864;SDS011;20159;51.072;13.526;2023-05-16T01:37:44;12.23;;;11.13;;
33864;SDS011;20159;51.072;13.526;2023-05-16T01:40:26;13.20;;;11.80;;
33864;SDS011;20159;51.072;13.526;2023-05-16T01:42:59;13.00;;;11.63;;
33864;SDS011;20159;51.072;13.526;2023-05-16T01:45:30;12.38;;;11.23;;
33864;SDS011;20159;51.072;13.526;2023-05-16T01:48:09;13.07;;;11.77;;
33864;SDS011;20159;51.072;13.526;2023-05-16T01:50:45;13.50;;;12.20;;
33864;SDS011;20159;51.072;13.526;2023-05-16T01:53:18;13.07;;;11.70;;
33864;SDS011;20159;51.072;13.526;2023-05-16T01:55:48;13.25;;;12.10;;
33864;SDS011;20159;51.072;13.526;2023-05-16T01:58:17;15.70;;;12.70;;
33864;SDS011;20159;51.072;13.526;2023-05-16T02:00:45;13.55;;;12.25;;
33864;SDS011;20159;51.072;13.526;2023-05-16T02:03:11;13.98;;;12.73;;
33864;SDS011;20159;51.072;13.526;2023-05-16T02:05:36;14.07;;;12.77;;
33864;SDS011;20159;51.072;13.526;2023-05-16T02:08:02;13.20;;;11.98;;
33864;SDS011;20159;51.072;13.526;2023-05-16T02:10:28;13.95;;;12.50;;
33864;SDS011;20159;51.072;13.526;2023-05-16T02:12:53;12.95;;;11.75;;
33864;SDS011;20159;51.072;13.526;2023-05-16T02:15:22;13.40;;;12.10;;
33864;SDS011;20159;51.072;13.526;2023-05-16T02:17:48;14.18;;;12.88;;
33864;SDS011;20159;51.072;13.526;2023-05-16T02:20:13;14.00;;;12.50;;
33864;SDS011;20159;51.072;13.526;2023-05-16T02:22:39;13.80;;;12.55;;
33864;SDS011;20159;51.072;13.526;2023-05-16T02:25:06;14.35;;;13.02;;
33864;SDS011;20159;51.072;13.526;2023-05-16T02:27:32;14.38;;;12.88;;
33864;SDS011;20159;51.072;13.526;2023-05-16T02:29:58;14.95;;;13.50;;
33864;SDS011;20159;51.072;13.526;2023-05-16T02:32:23;14.68;;;13.38;;
33864;SDS011;20159;51.072;13.526;2023-05-16T02:34:50;14.82;;;13.38;;
33864;SDS011;20159;51.072;13.526;2023-05-16T02:37:15;15.48;;;14.02;;
33864;SDS011;20159;51.072;13.526;2023-05-16T02:39:41;14.77;;;13.38;;
33864;SDS011;20159;51.072;13.526;2023-05-16T02:42:06;15.57;;;14.05;;
33864;SDS011;20159;51.072;13.526;2023-05-16T02:44:32;14.93;;;13.52;;
33864;SDS011;20159;51.072;13.526;2023-05-16T02:46:57;15.18;;;13.77;;
33864;SDS011;20159;51.072;13.526;2023-05-16T02:49:23;15.32;;;13.93;;
33864;SDS011;20159;51.072;13.526;2023-05-16T02:51:49;14.63;;;13.35;;
33864;SDS011;20159;51.072;13.526;2023-05-16T02:54:14;15.00;;;13.32;;
33864;SDS011;20159;51.072;13.526;2023-05-16T02:56:40;15.38;;;13.82;;
33864;SDS011;20159;51.072;13.526;2023-05-16T02:59:06;14.73;;;13.35;;
33864;SDS011;20159;51.072;13.526;2023-05-16T03:01:32;15.52;;;14.02;;
33864;SDS011;20159;51.072;13.526;2023-05-16T03:03:58;16.38;;;14.68;;
33864;SDS011;20159;51.072;13.526;2023-05-16T03:06:23;15.60;;;13.93;;
33864;SDS011;20159;51.072;13.526;2023-05-16T03:09:01;16.67;;;13.77;;
33864;SDS011;20159;51.072;13.526;2023-05-16T03:11:27;14.95;;;13.65;;
33864;SDS011;20159;51.072;13.526;2023-05-16T03:13:53;15.32;;;14.00;;
33864;SDS011;20159;51.072;13.526;2023-05-16T03:16:18;15.90;;;14.25;;
33864;SDS011;20159;51.072;13.526;2023-05-16T03:18:44;15.18;;;13.68;;
33864;SDS011;20159;51.072;13.526;2023-05-16T03:21:09;15.43;;;13.82;;
33864;SDS011;20159;51.072;13.526;2023-05-16T03:23:35;15.57;;;14.18;;
33864;SDS011;20159;51.072;13.526;2023-05-16T03:26:00;15.98;;;14.32;;
33864;SDS011;20159;51.072;13.526;2023-05-16T03:28:26;15.60;;;14.20;;
33864;SDS011;20159;51.072;13.526;2023-05-16T03:30:52;15.50;;;13.98;;
33864;SDS011;20159;51.072;13.526;2023-05-16T03:33:18;15.98;;;14.48;;
33864;SDS011;20159;51.072;13.526;2023-05-16T03:35:43;15.88;;;14.48;;
33864;SDS011;20159;51.072;13.526;2023-05-16T03:38:10;15.43;;;13.98;;
33864;SDS011;20159;51.072;13.526;2023-05-16T03:40:35;16.27;;;14.60;;
33864;SDS011;20159;51.072;13.526;2023-05-16T03:43:01;16.20;;;14.60;;
33864;SDS011;20159;51.072;13.526;2023-05-16T03:45:28;15.27;;;13.77;;
33864;SDS011;20159;51.072;13.526;2023-05-16T03:47:54;15.43;;;13.93;;
33864;SDS011;20159;51.072;13.526;2023-05-16T03:50:19;15.55;;;14.15;;
33864;SDS011;20159;51.072;13.526;2023-05-16T03:52:45;14.55;;;13.20;;
33864;SDS011;20159;51.072;13.526;2023-05-16T03:55:10;15.35;;;13.93;;
33864;SDS011;20159;51.072;13.526;2023-05-16T03:57:38;15.60;;;14.20;;
33864;SDS011;20159;51.072;13.526;2023-05-16T04:00:06;15.93;;;14.52;;
33864;SDS011;20159;51.072;13.526;2023-05-16T04:02:32;16.17;;;14.68;;
33864;SDS011;20159;51.072;13.526;2023-05-16T04:04:58;15.38;;;13.98;;
33864;SDS011;20159;51.072;13.526;2023-05-16T04:07:44;16.08;;;14.32;;
33864;SDS011;20159;51.072;13.526;2023-05-16T04:10:09;14.45;;;13.13;;
33864;SDS011;20159;51.072;13.526;2023-05-16T04:12:35;15.02;;;13.63;;
33864;SDS011;20159;51.072;13.526;2023-05-16T04:15:02;15.35;;;13.82;;
33864;SDS011;20159;51.072;13.526;2023-05-16T04:17:28;15.70;;;14.10;;
33864;SDS011;20159;51.072;13.526;2023-05-16T04:19:53;15.25;;;13.93;;
33864;SDS011;20159;51.072;13.526;2023-05-16T04:22:20;16.75;;;14.85;;
33864;SDS011;20159;51.072;13.526;2023-05-16T04:24:46;15.25;;;13.85;;
33864;SDS011;20159;51.072;13.526;2023-05-16T04:27:11;15.02;;;13.63;;
33864;SDS011;20159;51.072;13.526;2023-05-16T04:29:37;16.17;;;14.68;;
33864;SDS011;20159;51.072;13.526;2023-05-16T04:32:02;15.65;;;13.45;;
33864;SDS011;20159;51.072;13.526;2023-05-16T04:34:28;15.00;;;13.50;;
33864;SDS011;20159;51.072;13.526;2023-05-16T04:36:54;15.68;;;14.02;;
33864;SDS011;20159;51.072;13.526;2023-05-16T04:39:24;15.05;;;13.65;;
33864;SDS011;20159;51.072;13.526;2023-05-16T04:41:50;18.88;;;15.88;;
33864;SDS011;20159;51.072;13.526;2023-05-16T04:44:16;17.27;;;15.68;;
33864;SDS011;20159;51.072;13.526;2023-05-16T04:46:42;17.75;;;16.05;;
33864;SDS011;20159;51.072;13.526;2023-05-16T04:49:07;16.05;;;14.55;;
33864;SDS011;20159;51.072;13.526;2023-05-16T04:51:33;17.63;;;15.88;;
33864;SDS011;20159;51.072;13.526;2023-05-16T04:53:59;18.63;;;16.83;;
33864;SDS011;20159;51.072;13.526;2023-05-16T04:56:27;17.25;;;15.55;;
33864;SDS011;20159;51.072;13.526;2023-05-16T04:58:52;16.52;;;14.98;;
33864;SDS011;20159;51.072;13.526;2023-05-16T05:01:18;17.45;;;15.80;;
33864;SDS011;20159;51.072;13.526;2023-05-16T05:03:44;17.85;;;15.85;;
33864;SDS011;20159;51.072;13.526;2023-05-16T05:06:10;18.20;;;16.20;;
33864;SDS011;20159;51.072;13.526;2023-05-16T05:08:35;18.85;;;16.60;;
33864;SDS011;20159;51.072;13.526;2023-05-16T05:11:01;19.42;;;17.48;;
33864;SDS011;20159;51.072;13.526;2023-05-16T05:13:27;20.27;;;18.23;;
33864;SDS011;20159;51.072;13.526;2023-05-16T05:15:52;19.48;;;17.55;;
33864;SDS011;20159;51.072;13.526;2023-05-16T05:18:18;20.20;;;18.23;;
33864;SDS011;20159;51.072;13.526;2023-05-16T05:20:53;20.83;;;18.70;;
33864;SDS011;20159;51.072;13.526;2023-05-16T05:23:18;20.52;;;18.48;;
33864;SDS011;20159;51.072;13.526;2023-05-16T05:25:44;20.60;;;18.45;;
33864;SDS011;20159;51.072;13.526;2023-05-16T05:28:10;20.13;;;18.13;;
33864;SDS011;20159;51.072;13.526;2023-05-16T05:30:36;19.40;;;17.65;;
33864;SDS011;20159;51.072;13.526;2023-05-16T05:33:01;20.65;;;18.63;;
33864;SDS011;20159;51.072;13.526;2023-05-16T05:35:27;24.27;;;20.25;;
33864;SDS011;20159;51.072;13.526;2023-05-16T05:37:52;20.75;;;18.67;;
33864;SDS011;20159;51.072;13.526;2023-05-16T05:40:18;20.95;;;18.75;;
33864;SDS011;20159;51.072;13.526;2023-05-16T05:42:44;23.02;;;20.73;;
33864;SDS011;20159;51.072;13.526;2023-05-16T05:45:10;23.73;;;21.23;;
33864;SDS011;20159;51.072;13.526;2023-05-16T05:47:35;25.38;;;22.65;;
33864;SDS011;20159;51.072;13.526;2023-05-16T05:50:05;25.75;;;23.15;;
33864;SDS011;20159;51.072;13.526;2023-05-16T05:52:31;28.15;;;25.25;;
33864;SDS011;20159;51.072;13.526;2023-05-16T05:54:57;29.00;;;26.15;;
33864;SDS011;20159;51.072;13.526;2023-05-16T05:57:26;31.70;;;27.83;;
33864;SDS011;20159;51.072;13.526;2023-05-16T06:00:01;30.95;;;27.83;;
33864;SDS011;20159;51.072;13.526;2023-05-16T06:02:26;31.60;;;28.30;;
33864;SDS011;20159;51.072;13.526;2023-05-16T06:04:53;32.03;;;28.58;;
33864;SDS011;20159;51.072;13.526;2023-05-16T06:07:18;32.53;;;29.27;;
33864;SDS011;20159;51.072;13.526;2023-05-16T06:09:44;34.28;;;30.77;;
33864;SDS011;20159;51.072;13.526;2023-05-16T06:12:10;34.05;;;30.70;;
33864;SDS011;20159;51.072;13.526;2023-05-16T06:14:36;32.92;;;29.67;;
33864;SDS011;20159;51.072;13.526;2023-05-16T06:17:01;32.42;;;29.00;;
33864;SDS011;20159;51.072;13.526;2023-05-16T06:19:27;31.60;;;28.40;;
33864;SDS011;20159;51.072;13.526;2023-05-16T06:22:09;31.80;;;28.70;;
33864;SDS011;20159;51.072;13.526;2023-05-16T06:24:34;31.35;;;28.05;;
33864;SDS011;20159;51.072;13.526;2023-05-16T06:27:00;29.85;;;26.88;;
33864;SDS011;20159;51.072;13.526;2023-05-16T06:29:25;29.38;;;26.48;;
33864;SDS011;20159;51.072;13.526;2023-05-16T06:31:51;28.40;;;25.48;;
33864;SDS011;20159;51.072;13.526;2023-05-16T06:34:17;27.10;;;24.40;;
33864;SDS011;20159;51.072;13.526;2023-05-16T06:36:42;26.88;;;24.30;;
33864;SDS011;20159;51.072;13.526;2023-05-16T06:39:08;25.77;;;23.35;;
33864;SDS011;20159;51.072;13.526;2023-05-16T06:41:37;25.08;;;21.67;;
33864;SDS011;20159;51.072;13.526;2023-05-16T06:44:03;22.88;;;20.60;;
33864;SDS011;20159;51.072;13.526;2023-05-16T06:46:40;22.40;;;20.30;;
33864;SDS011;20159;51.072;13.526;2023-05-16T06:49:05;22.92;;;18.98;;
33864;SDS011;20159;51.072;13.526;2023-05-16T06:51:31;20.30;;;18.30;;
33864;SDS011;20159;51.072;13.526;2023-05-16T06:53:56;19.83;;;17.63;;
33864;SDS011;20159;51.072;13.526;2023-05-16T06:56:22;19.35;;;17.50;;
33864;SDS011;20159;51.072;13.526;2023-05-16T06:58:48;18.98;;;16.98;;
33864;SDS011;20159;51.072;13.526;2023-05-16T07:01:14;18.70;;;16.95;;
33864;SDS011;20159;51.072;13.526;2023-05-16T07:03:40;16.40;;;14.90;;
33864;SDS011;20159;51.072;13.526;2023-05-16T07:06:06;16.60;;;14.90;;
33864;SDS011;20159;51.072;13.526;2023-05-16T07:08:32;15.60;;;14.13;;
33864;SDS011;20159;51.072;13.526;2023-05-16T07:10:59;15.68;;;14.18;;
33864;SDS011;20159;51.072;13.526;2023-05-16T07:13:25;14.88;;;13.48;;
33864;SDS011;20159;51.072;13.526;2023-05-16T07:15:51;14.95;;;13.43;;
33864;SDS011;20159;51.072;13.526;2023-05-16T07:18:19;14.43;;;12.98;;
33864;SDS011;20159;51.072;13.526;2023-05-16T07:20:45;14.27;;;12.77;;
33864;SDS011;20159;51.072;13.526;2023-05-16T07:23:23;15.07;;;13.57;;
33864;SDS011;20159;51.072;13.526;2023-05-16T07:25:48;14.40;;;13.00;;
33864;SDS011;20159;51.072;13.526;2023-05-16T07:28:14;13.68;;;12.27;;
33864;SDS011;20159;51.072;13.526;2023-05-16T07:30:39;13.10;;;11.85;;
33864;SDS011;20159;51.072;13.526;2023-05-16T07:33:05;13.00;;;11.68;;
33864;SDS011;20159;51.072;13.526;2023-05-16T07:35:39;13.63;;;12.25;;
33864;SDS011;20159;51.072;13.526;2023-05-16T07:38:05;13.85;;;12.43;;
33864;SDS011;20159;51.072;13.526;2023-05-16T07:40:31;12.90;;;11.20;;
33864;SDS011;20159;51.072;13.526;2023-05-16T07:42:56;11.82;;;10.63;;
33864;SDS011;20159;51.072;13.526;2023-05-16T07:45:22;12.93;;;11.52;;
33864;SDS011;20159;51.072;13.526;2023-05-16T07:47:48;11.15;;;10.05;;
33864;SDS011;20159;51.072;13.526;2023-05-16T07:50:13;11.27;;;10.18;;
33864;SDS011;20159;51.072;13.526;2023-05-16T07:52:39;10.95;;;9.88;;
33864;SDS011;20159;51.072;13.526;2023-05-16T07:55:04;11.45;;;10.35;;
33864;SDS011;20159;51.072;13.526;2023-05-16T07:57:31;12.25;;;10.98;;
33864;SDS011;20159;51.072;13.526;2023-05-16T07:59:56;11.02;;;10.02;;
33864;SDS011;20159;51.072;13.526;2023-05-16T08:02:22;11.25;;;9.80;;
33864;SDS011;20159;51.072;13.526;2023-05-16T08:04:50;11.25;;;10.15;;
33864;SDS011;20159;51.072;13.526;2023-05-16T08:07:15;11.05;;;9.95;;
33864;SDS011;20159;51.072;13.526;2023-05-16T08:09:41;11.02;;;9.93;;
33864;SDS011;20159;51.072;13.526;2023-05-16T08:12:07;10.77;;;9.77;;
33864;SDS011;20159;51.072;13.526;2023-05-16T08:14:33;11.07;;;9.80;;
33864;SDS011;20159;51.072;13.526;2023-05-16T08:17:00;10.60;;;9.55;;
33864;SDS011;20159;51.072;13.526;2023-05-16T08:19:29;10.70;;;9.57;;
33864;SDS011;20159;51.072;13.526;2023-05-16T08:21:56;10.10;;;9.10;;
33864;SDS011;20159;51.072;13.526;2023-05-16T08:24:25;10.23;;;8.52;;
33864;SDS011;20159;51.072;13.526;2023-05-16T08:26:51;13.88;;;9.05;;
33864;SDS011;20159;51.072;13.526;2023-05-16T08:29:16;9.25;;;8.35;;
33864;SDS011;20159;51.072;13.526;2023-05-16T08:31:50;8.63;;;7.43;;
33864;SDS011;20159;51.072;13.526;2023-05-16T08:34:16;9.07;;;8.18;;
33864;SDS011;20159;51.072;13.526;2023-05-16T08:36:42;9.70;;;8.65;;
33864;SDS011;20159;51.072;13.526;2023-05-16T08:39:08;9.30;;;8.40;;
33864;SDS011;20159;51.072;13.526;2023-05-16T08:41:35;9.52;;;8.55;;
33864;SDS011;20159;51.072;13.526;2023-05-16T08:44:02;9.75;;;8.57;;
33864;SDS011;20159;51.072;13.526;2023-05-16T08:46:41;11.77;;;9.05;;
33864;SDS011;20159;51.072;13.526;2023-05-16T08:49:08;10.35;;;8.02;;
33864;SDS011;20159;51.072;13.526;2023-05-16T08:51:35;9.30;;;8.32;;
33864;SDS011;20159;51.072;13.526;2023-05-16T08:54:02;10.07;;;8.57;;
33864;SDS011;20159;51.072;13.526;2023-05-16T08:56:30;11.27;;;8.60;;
33864;SDS011;20159;51.072;13.526;2023-05-16T08:58:57;8.52;;;7.72;;
33864;SDS011;20159;51.072;13.526;2023-05-16T09:01:24;9.27;;;8.38;;
33864;SDS011;20159;51.072;13.526;2023-05-16T09:03:49;9.63;;;8.70;;
33864;SDS011;20159;51.072;13.526;2023-05-16T09:06:16;10.68;;;9.57;;
33864;SDS011;20159;51.072;13.526;2023-05-16T09:08:41;10.40;;;8.30;;
33864;SDS011;20159;51.072;13.526;2023-05-16T09:11:07;10.18;;;9.10;;
33864;SDS011;20159;51.072;13.526;2023-05-16T09:13:33;9.40;;;8.48;;
33864;SDS011;20159;51.072;13.526;2023-05-16T09:16:09;9.40;;;8.52;;
33864;SDS011;20159;51.072;13.526;2023-05-16T09:18:43;9.63;;;8.82;;
33864;SDS011;20159;51.072;13.526;2023-05-16T09:21:11;9.43;;;8.55;;
33864;SDS011;20159;51.072;13.526;2023-05-16T09:23:37;10.45;;;9.45;;
33864;SDS011;20159;51.072;13.526;2023-05-16T09:26:06;27.30;;;24.80;;
33864;SDS011;20159;51.072;13.526;2023-05-16T09:28:32;21.05;;;18.40;;
33864;SDS011;20159;51.072;13.526;2023-05-16T09:30:58;13.02;;;11.73;;
33864;SDS011;20159;51.072;13.526;2023-05-16T09:33:27;10.07;;;8.75;;
33864;SDS011;20159;51.072;13.526;2023-05-16T09:35:56;12.52;;;8.60;;
33864;SDS011;20159;51.072;13.526;2023-05-16T09:38:23;9.40;;;8.50;;
33864;SDS011;20159;51.072;13.526;2023-05-16T09:40:50;8.07;;;7.25;;
33864;SDS011;20159;51.072;13.526;2023-05-16T09:43:16;38.65;;;18.55;;
33864;SDS011;20159;51.072;13.526;2023-05-16T09:45:47;10.45;;;9.05;;
33864;SDS011;20159;51.072;13.526;2023-05-16T09:48:13;63.10;;;57.13;;
33864;SDS011;20159;51.072;13.526;2023-05-16T09:50:40;18.15;;;16.38;;
33864;SDS011;20159;51.072;13.526;2023-05-16T09:53:13;10.75;;;9.65;;
33864;SDS011;20159;51.072;13.526;2023-05-16T09:55:39;8.23;;;7.43;;
33864;SDS011;20159;51.072;13.526;2023-05-16T09:58:04;8.65;;;7.85;;
33864;SDS011;20159;51.072;13.526;2023-05-16T10:00:31;11.02;;;9.93;;
33864;SDS011;20159;51.072;13.526;2023-05-16T10:03:01;8.73;;;7.93;;
33864;SDS011;20159;51.072;13.526;2023-05-16T10:05:27;8.65;;;7.55;;
33864;SDS011;20159;51.072;13.526;2023-05-16T10:07:55;8.23;;;7.40;;
33864;SDS011;20159;51.072;13.526;2023-05-16T10:10:22;8.98;;;6.47;;
33864;SDS011;20159;51.072;13.526;2023-05-16T10:12:48;8.00;;;7.20;;
33864;SDS011;20159;51.072;13.526;2023-05-16T10:15:15;9.60;;;8.60;;
33864;SDS011;20159;51.072;13.526;2023-05-16T10:17:41;10.68;;;6.88;;
33864;SDS011;20159;51.072;13.526;2023-05-16T10:20:10;8.15;;;7.18;;
33864;SDS011;20159;51.072;13.526;2023-05-16T10:22:38;9.38;;;6.82;;
33864;SDS011;20159;51.072;13.526;2023-05-16T10:27:41;7.05;;;6.35;;
33864;SDS011;20159;51.072;13.526;2023-05-16T10:30:09;8.75;;;7.00;;
33864;SDS011;20159;51.072;13.526;2023-05-16T10:32:35;7.15;;;6.45;;
33864;SDS011;20159;51.072;13.526;2023-05-16T10:35:02;8.20;;;6.28;;
33864;SDS011;20159;51.072;13.526;2023-05-16T10:37:28;7.13;;;6.45;;
33864;SDS011;20159;51.072;13.526;2023-05-16T10:39:56;7.05;;;5.97;;
33864;SDS011;20159;51.072;13.526;2023-05-16T10:42:24;8.65;;;6.35;;
33864;SDS011;20159;51.072;13.526;2023-05-16T10:44:52;12.52;;;6.10;;
33864;SDS011;20159;51.072;13.526;2023-05-16T10:47:20;7.22;;;5.90;;
33864;SDS011;20159;51.072;13.526;2023-05-16T10:49:46;7.22;;;5.80;;
33864;SDS011;20159;51.072;13.526;2023-05-16T10:52:14;7.93;;;6.28;;
33864;SDS011;20159;51.072;13.526;2023-05-16T10:54:42;6.90;;;6.20;;
33864;SDS011;20159;51.072;13.526;2023-05-16T10:57:16;8.40;;;5.95;;
33864;SDS011;20159;51.072;13.526;2023-05-16T10:59:49;8.20;;;5.78;;
33864;SDS011;20159;51.072;13.526;2023-05-16T11:02:28;6.75;;;6.05;;
33864;SDS011;20159;51.072;13.526;2023-05-16T11:04:57;7.35;;;5.18;;
33864;SDS011;20159;51.072;13.526;2023-05-16T11:07:25;6.10;;;5.45;;
33864;SDS011;20159;51.072;13.526;2023-05-16T11:10:01;5.75;;;5.18;;
33864;SDS011;20159;51.072;13.526;2023-05-16T11:13:06;8.02;;;4.97;;
33864;SDS011;20159;51.072;13.526;2023-05-16T11:15:30;6.47;;;4.95;;
33864;SDS011;20159;51.072;13.526;2023-05-16T11:18:08;5.97;;;4.75;;
33864;SDS011;20159;51.072;13.526;2023-05-16T11:20:38;5.05;;;4.55;;
33864;SDS011;20159;51.072;13.526;2023-05-16T11:25:58;4.47;;;4.05;;
33864;SDS011;20159;51.072;13.526;2023-05-16T11:28:25;4.80;;;3.72;;
33864;SDS011;20159;51.072;13.526;2023-05-16T11:30:52;4.40;;;3.83;;
33864;SDS011;20159;51.072;13.526;2023-05-16T11:33:21;6.93;;;4.40;;
33864;SDS011;20159;51.072;13.526;2023-05-16T11:36:09;5.15;;;3.60;;
33864;SDS011;20159;51.072;13.526;2023-05-16T11:38:54;3.85;;;3.15;;
33864;SDS011;20159;51.072;13.526;2023-05-16T11:41:36;3.63;;;3.33;;
33864;SDS011;20159;51.072;13.526;2023-05-16T11:44:11;4.25;;;3.10;;
33864;SDS011;20159;51.072;13.526;2023-05-16T11:46:39;4.65;;;3.55;;
33864;SDS011;20159;51.072;13.526;2023-05-16T11:49:06;4.20;;;3.33;;
33864;SDS011;20159;51.072;13.526;2023-05-16T11:51:34;4.50;;;3.25;;
33864;SDS011;20159;51.072;13.526;2023-05-16T11:54:03;3.63;;;3.33;;
33864;SDS011;20159;51.072;13.526;2023-05-16T11:56:29;4.97;;;3.30;;
33864;SDS011;20159;51.072;13.526;2023-05-16T11:58:56;3.85;;;3.20;;
33864;SDS011;20159;51.072;13.526;2023-05-16T12:01:24;4.72;;;3.55;;
33864;SDS011;20159;51.072;13.526;2023-05-16T12:03:53;4.43;;;3.22;;
33864;SDS011;20159;51.072;13.526;2023-05-16T12:06:20;4.32;;;3.35;;
33864;SDS011;20159;51.072;13.526;2023-05-16T12:08:49;7.57;;;3.33;;
33864;SDS011;20159;51.072;13.526;2023-05-16T12:11:15;4.72;;;3.05;;
33864;SDS011;20159;51.072;13.526;2023-05-16T12:13:41;4.90;;;3.47;;
33864;SDS011;20159;51.072;13.526;2023-05-16T12:16:08;4.40;;;3.33;;
33864;SDS011;20159;51.072;13.526;2023-05-16T12:18:34;3.47;;;3.17;;
33864;SDS011;20159;51.072;13.526;2023-05-16T12:21:02;4.72;;;3.42;;
33864;SDS011;20159;51.072;13.526;2023-05-16T12:23:31;5.05;;;3.28;;
33864;SDS011;20159;51.072;13.526;2023-05-16T12:25:57;5.88;;;3.30;;
33864;SDS011;20159;51.072;13.526;2023-05-16T12:28:28;4.40;;;2.80;;
33864;SDS011;20159;51.072;13.526;2023-05-16T12:30:57;3.58;;;3.00;;
33864;SDS011;20159;51.072;13.526;2023-05-16T12:33:22;3.72;;;2.60;;
33864;SDS011;20159;51.072;13.526;2023-05-16T12:35:48;2.70;;;2.50;;
33864;SDS011;20159;51.072;13.526;2023-05-16T12:38:15;3.65;;;3.00;;
33864;SDS011;20159;51.072;13.526;2023-05-16T12:40:42;3.90;;;2.78;;
33864;SDS011;20159;51.072;13.526;2023-05-16T12:43:14;4.50;;;3.13;;
33864;SDS011;20159;51.072;13.526;2023-05-16T12:45:41;3.70;;;2.92;;
33864;SDS011;20159;51.072;13.526;2023-05-16T12:48:13;4.63;;;2.55;;
33864;SDS011;20159;51.072;13.526;2023-05-16T12:50:39;3.40;;;3.03;;
33864;SDS011;20159;51.072;13.526;2023-05-16T12:53:10;3.20;;;2.83;;
33864;SDS011;20159;51.072;13.526;2023-05-16T12:55:37;4.90;;;2.92;;
33864;SDS011;20159;51.072;13.526;2023-05-16T12:58:03;4.00;;;2.88;;
33864;SDS011;20159;51.072;13.526;2023-05-16T13:00:28;4.20;;;2.90;;
33864;SDS011;20159;51.072;13.526;2023-05-16T13:02:56;3.95;;;2.88;;
33864;SDS011;20159;51.072;13.526;2023-05-16T13:05:21;3.75;;;3.28;;
33864;SDS011;20159;51.072;13.526;2023-05-16T13:07:47;3.97;;;2.90;;
33864;SDS011;20159;51.072;13.526;2023-05-16T13:10:15;3.03;;;2.65;;
33864;SDS011;20159;51.072;13.526;2023-05-16T13:12:41;4.22;;;2.80;;
33864;SDS011;20159;51.072;13.526;2023-05-16T13:15:07;3.10;;;2.78;;
33864;SDS011;20159;51.072;13.526;2023-05-16T13:17:34;5.10;;;2.72;;
33864;SDS011;20159;51.072;13.526;2023-05-16T13:20:01;3.38;;;2.80;;
33864;SDS011;20159;51.072;13.526;2023-05-16T13:22:34;4.22;;;2.92;;
33864;SDS011;20159;51.072;13.526;2023-05-16T13:25:00;4.80;;;3.25;;
33864;SDS011;20159;51.072;13.526;2023-05-16T13:27:26;4.05;;;2.83;;
33864;SDS011;20159;51.072;13.526;2023-05-16T13:29:51;4.72;;;3.25;;
33864;SDS011;20159;51.072;13.526;2023-05-16T13:32:17;3.42;;;2.58;;
33864;SDS011;20159;51.072;13.526;2023-05-16T13:34:42;3.35;;;2.60;;
33864;SDS011;20159;51.072;13.526;2023-05-16T13:37:08;5.82;;;2.92;;
33864;SDS011;20159;51.072;13.526;2023-05-16T13:39:34;4.25;;;2.70;;
33864;SDS011;20159;51.072;13.526;2023-05-16T13:42:00;3.45;;;2.58;;
33864;SDS011;20159;51.072;13.526;2023-05-16T13:44:27;3.42;;;2.08;;
33864;SDS011;20159;51.072;13.526;2023-05-16T13:46:52;2.75;;;2.30;;
33864;SDS011;20159;51.072;13.526;2023-05-16T13:49:18;4.63;;;2.40;;
33864;SDS011;20159;51.072;13.526;2023-05-16T13:51:43;6.82;;;2.38;;
33864;SDS011;20159;51.072;13.526;2023-05-16T13:54:09;3.15;;;2.50;;
33864;SDS011;20159;51.072;13.526;2023-05-16T13:56:34;3.15;;;2.15;;
33864;SDS011;20159;51.072;13.526;2023-05-16T13:59:00;4.82;;;2.33;;
33864;SDS011;20159;51.072;13.526;2023-05-16T14:01:25;3.58;;;2.40;;
33864;SDS011;20159;51.072;13.526;2023-05-16T14:03:52;6.47;;;2.15;;
33864;SDS011;20159;51.072;13.526;2023-05-16T14:06:17;3.22;;;2.40;;
33864;SDS011;20159;51.072;13.526;2023-05-16T14:08:42;5.95;;;2.28;;
33864;SDS011;20159;51.072;13.526;2023-05-16T14:11:08;4.15;;;2.60;;
33864;SDS011;20159;51.072;13.526;2023-05-16T14:13:33;4.47;;;2.40;;
33864;SDS011;20159;51.072;13.526;2023-05-16T14:15:59;5.70;;;2.70;;
33864;SDS011;20159;51.072;13.526;2023-05-16T14:18:26;5.13;;;2.60;;
33864;SDS011;20159;51.072;13.526;2023-05-16T14:20:51;7.45;;;2.80;;
33864;SDS011;20159;51.072;13.526;2023-05-16T14:23:20;4.00;;;2.22;;
33864;SDS011;20159;51.072;13.526;2023-05-16T14:25:46;4.53;;;2.58;;
33864;SDS011;20159;51.072;13.526;2023-05-16T14:28:11;4.22;;;2.20;;
33864;SDS011;20159;51.072;13.526;2023-05-16T14:30:36;8.15;;;2.80;;
33864;SDS011;20159;51.072;13.526;2023-05-16T14:33:02;5.32;;;2.90;;